Time;durP1;ratioP1;P1;durP2;ratioP2;P2;SDS_P1;SDS_P2;PMS_P1;PMS_P2;Temp;Humidity;BMP_temperature;BMP_pressure;BME280_temperature;BME280_humidity;BME280_pressure;Samples;Min_cycle;Max_cycle;Signal;HPM_P1;HPM_P2
2021/07/02 00:02:24;;;;;;;7.75;5.15;;;;;;;20.00;82.54;98720.55;1726015;83;21594;-72
2021/07/02 00:04:50;;;;;;;8.20;5.10;;;;;;;19.97;82.60;98719.08;1720538;83;21107;-72
2021/07/02 00:07:18;;;;;;;7.75;5.35;;;;;;;19.94;82.67;98712.31;1711929;83;21100;-69
2021/07/02 00:09:44;;;;;;;11.63;5.30;;;;;;;19.94;82.69;98710.94;1707544;83;21079;-69
2021/07/02 00:12:11;;;;;;;9.98;5.58;;;;;;;19.94;82.70;98715.66;1726350;83;21075;-69
2021/07/02 00:14:39;;;;;;;7.95;5.15;;;;;;;19.95;82.59;98705.61;1733094;83;21087;-69
2021/07/02 00:17:07;;;;;;;12.13;6.08;;;;;;;19.95;82.52;98706.99;1724772;83;21032;-69
2021/07/02 00:19:33;;;;;;;9.10;5.45;;;;;;;19.96;82.38;98705.84;1733633;83;21012;-69
2021/07/02 00:22:00;;;;;;;8.80;5.37;;;;;;;19.97;82.42;98703.88;1734732;83;21130;-68
2021/07/02 00:24:26;;;;;;;9.85;6.03;;;;;;;19.98;82.46;98704.89;1732751;83;21645;-69
2021/07/02 00:26:53;;;;;;;9.53;5.42;;;;;;;19.97;82.40;98713.55;1734857;81;21072;-69
2021/07/02 00:29:19;;;;;;;11.33;5.83;;;;;;;19.93;82.45;98712.66;1755882;81;21868;-69
2021/07/02 00:31:46;;;;;;;8.78;5.87;;;;;;;19.89;82.51;98715.34;1762821;81;21075;-69
2021/07/02 00:34:13;;;;;;;10.63;6.28;;;;;;;19.86;82.58;98716.05;1760247;80;20939;-70
2021/07/02 00:36:40;;;;;;;9.75;5.70;;;;;;;19.84;82.58;98723.88;1720926;83;21088;-69
2021/07/02 00:39:07;;;;;;;8.45;5.60;;;;;;;19.82;82.64;98711.83;1723156;83;20974;-69
2021/07/02 00:41:35;;;;;;;10.68;6.10;;;;;;;19.82;82.66;98715.16;1719310;83;21449;-70
2021/07/02 00:44:02;;;;;;;8.40;6.25;;;;;;;19.82;82.63;98711.02;1727018;82;21339;-69
2021/07/02 00:46:28;;;;;;;10.25;6.08;;;;;;;19.82;82.45;98717.35;1704442;84;21641;-68
2021/07/02 00:48:56;;;;;;;7.30;5.90;;;;;;;19.80;82.29;98709.20;1727757;83;21087;-69
2021/07/02 00:51:23;;;;;;;12.28;6.33;;;;;;;19.73;82.26;98707.66;1752731;82;21060;-69
2021/07/02 00:53:49;;;;;;;8.00;5.12;;;;;;;19.63;82.45;98699.88;1749361;80;21521;-69
2021/07/02 00:56:18;;;;;;;9.00;5.15;;;;;;;19.55;82.53;98699.50;1719663;83;21043;-69
2021/07/02 00:58:45;;;;;;;11.50;6.35;;;;;;;19.47;82.65;98694.94;1703749;84;21089;-68
2021/07/02 01:01:16;;;;;;;8.13;6.05;;;;;;;19.42;82.81;98697.37;1714797;83;21530;-69
2021/07/02 01:03:45;;;;;;;7.60;6.40;;;;;;;19.38;83.01;98694.50;1730648;83;20992;-69
2021/07/02 01:06:13;;;;;;;11.05;6.67;;;;;;;19.37;83.16;98705.33;1752596;82;21059;-69
2021/07/02 01:08:44;;;;;;;9.65;6.03;;;;;;;19.39;83.26;98697.48;1752621;82;21544;-69
2021/07/02 01:11:11;;;;;;;9.40;6.20;;;;;;;19.36;83.17;98693.26;1750977;80;20979;-68
2021/07/02 01:13:39;;;;;;;9.00;6.58;;;;;;;19.30;83.25;98688.59;1705847;83;21014;-68
2021/07/02 01:16:06;;;;;;;7.87;6.05;;;;;;;19.29;83.45;98690.31;1753142;80;21012;-70
2021/07/02 01:18:32;;;;;;;10.72;7.33;;;;;;;19.30;83.61;98690.55;1721526;82;20973;-70
2021/07/02 01:21:00;;;;;;;9.60;6.80;;;;;;;19.34;83.71;98694.98;1736408;80;21032;-70
2021/07/02 01:23:28;;;;;;;11.45;7.55;;;;;;;19.37;83.79;98694.88;1722938;83;20977;-69
2021/07/02 01:25:55;;;;;;;8.53;7.72;;;;;;;19.34;83.91;98691.44;1728071;82;21024;-70
2021/07/02 01:28:22;;;;;;;7.65;5.85;;;;;;;19.27;84.10;98691.26;1743567;82;21080;-71
2021/07/02 01:30:49;;;;;;;9.58;7.45;;;;;;;19.24;84.34;98696.88;1739962;81;21456;-70
2021/07/02 01:33:16;;;;;;;11.97;7.25;;;;;;;19.19;84.45;98696.35;1738809;82;21013;-70
2021/07/02 01:35:44;;;;;;;11.90;8.83;;;;;;;19.15;84.59;98706.48;1747982;82;21558;-70
2021/07/02 01:38:13;;;;;;;9.68;7.85;;;;;;;19.11;84.75;98701.45;1684146;84;21042;-70
2021/07/02 01:40:42;;;;;;;13.10;8.90;;;;;;;19.06;84.92;98696.20;1735944;81;21040;-71
2021/07/02 01:43:10;;;;;;;11.83;9.23;;;;;;;19.03;85.07;98704.58;1753074;81;21031;-69
2021/07/02 01:45:38;;;;;;;13.10;9.50;;;;;;;19.00;85.28;98700.34;1750432;80;21020;-70
2021/07/02 01:48:05;;;;;;;13.93;10.30;;;;;;;19.02;85.48;98707.13;1744938;82;21044;-70
2021/07/02 01:50:32;;;;;;;14.20;10.03;;;;;;;19.04;85.58;98713.66;1759250;80;21054;-70
2021/07/02 01:53:01;;;;;;;13.95;11.15;;;;;;;19.10;85.67;98716.38;1747384;80;21027;-69
2021/07/02 01:55:27;;;;;;;10.98;8.85;;;;;;;19.16;85.73;98716.38;1754634;80;21047;-70
2021/07/02 01:57:56;;;;;;;15.32;10.60;;;;;;;19.20;85.70;98715.90;1731267;80;21593;-70
2021/07/02 02:00:25;;;;;;;15.78;11.22;;;;;;;19.19;85.72;98714.28;1723411;82;21060;-69
2021/07/02 02:02:53;;;;;;;12.70;10.70;;;;;;;19.17;85.75;98709.11;1735485;80;21074;-70
2021/07/02 02:05:19;;;;;;;15.00;10.50;;;;;;;19.19;85.80;98710.95;1733281;80;21056;-70
2021/07/02 02:07:47;;;;;;;13.20;10.48;;;;;;;19.26;85.79;98709.77;1738392;80;21682;-70
2021/07/02 02:10:14;;;;;;;12.37;10.90;;;;;;;19.26;85.69;98702.87;1746143;80;21002;-70
2021/07/02 02:12:41;;;;;;;13.62;10.25;;;;;;;19.28;85.67;98710.77;1729300;80;21057;-70
2021/07/02 02:15:08;;;;;;;14.38;10.15;;;;;;;19.29;85.65;98709.62;1719630;82;20969;-70
2021/07/02 02:17:35;;;;;;;11.28;9.95;;;;;;;19.29;85.63;98703.53;1710494;82;21050;-70
2021/07/02 02:20:04;;;;;;;11.35;9.90;;;;;;;19.30;85.58;98708.48;1719637;83;21086;-70
2021/07/02 02:22:31;;;;;;;11.25;9.18;;;;;;;19.26;85.56;98697.92;1742591;80;21052;-70
2021/07/02 02:24:59;;;;;;;14.90;10.60;;;;;;;19.20;85.61;98697.36;1706487;83;21452;-70
2021/07/02 02:27:26;;;;;;;11.75;9.58;;;;;;;19.20;85.69;98710.38;1687334;84;21147;-70
2021/07/02 02:29:53;;;;;;;12.40;8.13;;;;;;;19.23;85.77;98706.91;1717692;82;21023;-70
2021/07/02 02:32:20;;;;;;;11.93;9.63;;;;;;;19.24;85.81;98712.05;1713920;82;21625;-70
2021/07/02 02:34:47;;;;;;;16.80;10.05;;;;;;;19.26;85.79;98719.42;1727476;82;21044;-70
2021/07/02 02:37:14;;;;;;;13.65;11.55;;;;;;;19.30;85.79;98723.66;1708138;83;21091;-70
2021/07/02 02:39:41;;;;;;;12.63;9.98;;;;;;;19.32;85.77;98734.55;1729381;83;21021;-70
2021/07/02 02:42:08;;;;;;;11.12;9.50;;;;;;;19.35;85.80;98733.84;1723799;83;21641;-70
2021/07/02 02:44:34;;;;;;;15.45;9.95;;;;;;;19.44;85.90;98732.91;1730092;83;21041;-70
2021/07/02 02:47:02;;;;;;;12.30;9.28;;;;;;;19.49;85.90;98738.97;1729559;83;21603;-71
2021/07/02 02:49:28;;;;;;;11.53;9.48;;;;;;;19.60;85.93;98748.91;1718711;83;20957;-70
2021/07/02 02:51:55;;;;;;;13.03;9.15;;;;;;;19.68;85.86;98757.60;1709846;83;21535;-71
2021/07/02 02:54:22;;;;;;;14.60;9.58;;;;;;;19.79;85.82;98757.30;1705556;83;20997;-70
2021/07/02 02:57:04;;;;;;;11.53;9.68;;;;;;;19.89;85.77;98758.14;1693784;84;21617;-70
2021/07/02 02:59:32;;;;;;;12.43;9.68;;;;;;;19.99;85.59;98755.42;1725127;83;20980;-70
2021/07/02 03:01:59;;;;;;;13.30;9.68;;;;;;;20.05;85.34;98760.91;1728175;83;21116;-70
2021/07/02 03:04:26;;;;;;;14.15;9.18;;;;;;;20.07;85.06;98760.77;1727254;83;21460;-71
2021/07/02 03:06:52;;;;;;;12.03;9.65;;;;;;;20.13;85.00;98766.81;1705312;83;21120;-70
2021/07/02 03:09:19;;;;;;;11.70;8.90;;;;;;;20.15;84.81;98772.80;1727051;82;21483;-70
2021/07/02 03:11:50;;;;;;;14.03;10.40;;;;;;;20.20;84.77;98772.51;1730916;81;21027;-70
2021/07/02 03:14:15;;;;;;;11.80;9.23;;;;;;;20.17;84.39;98780.95;1717710;81;21064;-70
2021/07/02 03:16:42;;;;;;;10.68;9.50;;;;;;;20.14;84.21;98788.57;1706835;83;21071;-70
2021/07/02 03:19:09;;;;;;;11.28;9.55;;;;;;;20.15;84.15;98794.33;1721479;83;21020;-70
2021/07/02 03:24:36;;;;;;;11.00;8.13;;;;;;;20.08;83.98;98781.72;1810138;79;23111;-61
2021/07/02 03:27:03;;;;;;;13.50;9.05;;;;;;;20.03;84.13;98780.59;1769069;80;21029;-61
2021/07/02 03:29:30;;;;;;;13.88;8.88;;;;;;;20.06;84.17;98768.83;1719433;82;21529;-61
2021/07/02 03:31:57;;;;;;;11.33;9.00;;;;;;;20.10;84.06;98766.95;1747783;80;21460;-60
2021/07/02 03:34:23;;;;;;;14.30;9.60;;;;;;;20.09;83.67;98775.02;1739951;82;20994;-60
2021/07/02 03:36:52;;;;;;;11.65;8.93;;;;;;;20.02;83.62;98776.80;1708292;82;21047;-60
2021/07/02 03:39:19;;;;;;;11.57;8.83;;;;;;;20.03;83.83;98768.16;1700193;84;20966;-60
2021/07/02 03:41:45;;;;;;;9.75;7.47;;;;;;;20.04;83.65;98779.45;1700097;83;21074;-61
2021/07/02 03:44:12;;;;;;;14.45;8.83;;;;;;;20.05;83.62;98778.27;1700656;84;21564;-60
2021/07/02 03:46:39;;;;;;;11.43;9.13;;;;;;;20.05;83.57;98782.41;1699032;83;21050;-63
2021/07/02 03:49:06;;;;;;;9.13;7.40;;;;;;;20.06;83.62;98793.69;1671988;84;21015;-61
2021/07/02 03:51:32;;;;;;;10.13;7.58;;;;;;;20.14;83.85;98794.09;1700747;83;21055;-61
2021/07/02 03:54:00;;;;;;;10.90;8.40;;;;;;;20.19;83.80;98794.41;1699792;84;21019;-63
2021/07/02 03:56:27;;;;;;;13.55;8.05;;;;;;;20.21;83.85;98784.59;1700373;84;21054;-62
2021/07/02 03:58:53;;;;;;;11.88;8.00;;;;;;;20.23;83.65;98781.46;1700532;84;21039;-62
2021/07/02 04:01:19;;;;;;;8.33;6.97;;;;;;;20.24;83.45;98782.50;1698341;84;20989;-62
2021/07/02 04:03:46;;;;;;;13.20;8.20;;;;;;;20.28;83.41;98785.38;1700711;84;21041;-62
2021/07/02 04:06:13;;;;;;;10.48;8.05;;;;;;;20.33;83.32;98785.89;1700101;84;21509;-62
2021/07/02 04:08:40;;;;;;;10.30;8.03;;;;;;;20.40;83.10;98785.86;1699224;84;21069;-61
2021/07/02 04:11:08;;;;;;;9.83;7.22;;;;;;;20.44;82.98;98797.20;1699201;84;21115;-62
2021/07/02 04:13:37;;;;;;;10.68;7.60;;;;;;;20.52;82.80;98795.41;1699908;84;21082;-63
2021/07/02 04:16:04;;;;;;;8.03;6.30;;;;;;;20.55;82.55;98801.02;1700706;84;21565;-63
2021/07/02 04:18:31;;;;;;;10.93;8.10;;;;;;;20.63;82.62;98793.69;1691408;84;21609;-62
2021/07/02 04:20:57;;;;;;;9.75;7.53;;;;;;;20.71;82.34;98792.69;1700783;84;21003;-63
2021/07/02 04:23:24;;;;;;;10.00;7.78;;;;;;;20.71;81.96;98787.97;1695614;83;21003;-62
2021/07/02 04:25:50;;;;;;;9.03;6.72;;;;;;;20.68;81.80;98786.51;1739354;82;21423;-62
2021/07/02 04:28:17;;;;;;;11.45;6.55;;;;;;;20.74;82.01;98791.97;1742267;82;21525;-62
2021/07/02 04:30:43;;;;;;;12.05;7.00;;;;;;;20.82;81.93;98779.91;1716644;82;20939;-62
2021/07/02 04:33:10;;;;;;;9.33;6.97;;;;;;;20.92;81.86;98775.18;1740967;81;21015;-63
2021/07/02 04:35:36;;;;;;;8.68;6.42;;;;;;;20.98;81.42;98775.68;1742892;82;20963;-62
2021/07/02 04:38:04;;;;;;;8.98;6.78;;;;;;;21.05;81.21;98776.63;1742609;81;21091;-62
2021/07/02 04:40:30;;;;;;;11.03;6.37;;;;;;;21.11;80.68;98782.14;1742997;82;20946;-63
2021/07/02 04:42:57;;;;;;;8.78;7.03;;;;;;;21.15;80.38;98780.23;1742584;82;21067;-62
2021/07/02 04:45:24;;;;;;;11.85;7.20;;;;;;;21.23;80.41;98775.06;1742697;82;20994;-63
2021/07/02 04:47:50;;;;;;;8.25;6.25;;;;;;;21.36;80.33;98773.53;1742916;81;21631;-62
2021/07/02 04:50:18;;;;;;;8.33;6.80;;;;;;;21.49;79.70;98778.54;1742584;82;20998;-62
2021/07/02 04:52:44;;;;;;;9.45;6.60;;;;;;;21.57;79.21;98778.09;1720636;82;21080;-62
2021/07/02 04:55:12;;;;;;;11.90;6.60;;;;;;;21.65;78.78;98772.30;1742485;82;21485;-63
2021/07/02 04:57:39;;;;;;;13.80;7.15;;;;;;;21.78;78.51;98779.86;1742844;81;21502;-62
2021/07/02 05:00:07;;;;;;;9.98;7.30;;;;;;;21.98;77.86;98772.31;1742166;82;21509;-62
2021/07/02 05:02:33;;;;;;;9.35;7.03;;;;;;;22.10;77.18;98767.97;1739418;81;21110;-62
2021/07/02 05:05:02;;;;;;;7.40;6.33;;;;;;;22.20;77.14;98765.95;1742689;82;21546;-62
2021/07/02 05:07:29;;;;;;;11.63;5.78;;;;;;;22.29;76.68;98764.52;1741307;81;21102;-62
2021/07/02 05:09:57;;;;;;;10.05;6.97;;;;;;;22.48;76.16;98760.84;1742736;82;21005;-62
2021/07/02 05:12:23;;;;;;;10.13;7.12;;;;;;;22.51;74.74;98764.25;1735068;81;21037;-62
2021/07/02 05:14:50;;;;;;;8.28;6.55;;;;;;;22.52;74.64;98768.63;1742541;82;21571;-62
2021/07/02 05:17:17;;;;;;;7.75;6.12;;;;;;;22.55;73.96;98767.88;1739065;82;21046;-62
2021/07/02 05:19:43;;;;;;;8.43;6.15;;;;;;;22.60;73.95;98770.92;1734293;82;21035;-62
2021/07/02 05:22:16;;;;;;;7.85;5.72;;;;;;;22.75;74.78;98779.67;1734415;81;21574;-62
2021/07/02 05:24:42;;;;;;;7.25;6.42;;;;;;;23.02;74.49;98781.83;1731363;82;21599;-62
2021/07/02 05:27:09;;;;;;;9.00;6.40;;;;;;;23.09;73.49;98789.66;1722546;82;21117;-62
2021/07/02 05:29:35;;;;;;;6.70;5.55;;;;;;;23.14;73.28;98785.73;1715593;82;21073;-62
2021/07/02 05:32:03;;;;;;;8.20;6.47;;;;;;;23.23;72.52;98790.42;1730691;82;21077;-62
2021/07/02 05:34:32;;;;;;;9.78;5.80;;;;;;;23.17;71.98;98795.50;1735985;82;20960;-62
2021/07/02 05:36:59;;;;;;;8.05;5.37;;;;;;;23.11;72.46;98797.59;1737769;81;21064;-62
2021/07/02 05:39:26;;;;;;;8.18;6.10;;;;;;;23.11;72.68;98800.38;1737601;82;21098;-62
2021/07/02 05:41:52;;;;;;;11.00;5.90;;;;;;;23.04;72.45;98798.89;1736013;81;21429;-62
2021/07/02 05:44:19;;;;;;;9.45;6.67;;;;;;;23.09;72.78;98799.96;1734022;82;20987;-62
2021/07/02 05:46:45;;;;;;;8.00;6.25;;;;;;;23.05;72.25;98798.53;1737067;82;21003;-62
2021/07/02 05:49:12;;;;;;;8.65;5.95;;;;;;;23.06;72.56;98800.11;1736798;82;21053;-62
2021/07/02 05:51:39;;;;;;;8.10;5.40;;;;;;;23.17;73.43;98796.88;1734456;82;20954;-62
2021/07/02 05:54:05;;;;;;;6.75;5.37;;;;;;;23.36;72.81;98796.52;1736176;82;21004;-62
2021/07/02 05:56:32;;;;;;;9.33;6.33;;;;;;;23.45;72.12;98795.67;1689423;81;20992;-62
2021/07/02 05:58:59;;;;;;;10.50;5.85;;;;;;;23.44;71.60;98796.27;1733833;82;21493;-61
2021/07/02 06:01:26;;;;;;;6.67;5.42;;;;;;;23.46;71.84;98802.80;1696348;84;21078;-62
2021/07/02 06:03:53;;;;;;;9.80;5.67;;;;;;;23.55;71.82;98800.55;1736900;82;21557;-63
2021/07/02 06:06:19;;;;;;;7.65;5.42;;;;;;;23.57;71.18;98798.98;1729843;82;21651;-62
2021/07/02 06:08:46;;;;;;;8.50;5.40;;;;;;;23.58;71.00;98788.08;1716047;82;21092;-62
2021/07/02 06:11:12;;;;;;;6.65;5.92;;;;;;;23.59;70.08;98793.86;1726597;81;21145;-60
2021/07/02 06:13:39;;;;;;;7.67;5.58;;;;;;;23.64;70.42;98796.86;1736341;81;21153;-63
2021/07/02 06:16:06;;;;;;;11.63;5.83;;;;;;;23.69;70.58;98800.70;1736896;81;21307;-62
2021/07/02 06:18:32;;;;;;;7.08;5.42;;;;;;;23.84;70.18;98800.25;1736527;81;21098;-64
2021/07/02 06:20:59;;;;;;;8.43;5.45;;;;;;;23.89;69.52;98801.28;1729755;81;21389;-62
2021/07/02 06:23:28;;;;;;;7.30;6.50;;;;;;;23.95;69.92;98799.77;1732939;81;21606;-63
2021/07/02 06:25:53;;;;;;;7.65;5.70;;;;;;;24.07;69.87;98791.13;1735320;82;21896;-64
2021/07/02 06:28:20;;;;;;;8.55;5.83;;;;;;;24.19;69.37;98789.48;1739061;82;21174;-63
2021/07/02 06:30:46;;;;;;;9.08;5.30;;;;;;;24.58;67.99;98805.08;1731247;82;20995;-63
2021/07/02 06:33:13;;;;;;;7.22;5.30;;;;;;;24.58;67.99;98805.08;1736287;82;21555;-63
2021/07/02 06:35:39;;;;;;;11.03;5.62;;;;;;;24.69;67.00;98797.61;1740191;82;20978;-64
2021/07/02 06:38:05;;;;;;;10.50;6.33;;;;;;;24.75;66.46;98797.44;1742331;82;21070;-65
2021/07/02 06:40:31;;;;;;;7.75;5.87;;;;;;;24.62;66.29;98803.90;1737441;81;20995;-64
2021/07/02 06:42:59;;;;;;;15.05;8.63;;;;;;;24.52;66.90;98799.66;1711419;81;21654;-62
2021/07/02 06:45:26;;;;;;;14.47;8.88;;;;;;;24.50;67.08;98795.88;1728471;82;21099;-64
2021/07/02 06:48:01;;;;;;;10.08;6.53;;;;;;;24.41;67.29;98793.23;1718366;82;21002;-64
2021/07/02 06:50:32;;;;;;;9.28;6.80;;;;;;;24.40;67.49;98791.05;1747100;81;21026;-64
2021/07/02 06:53:00;;;;;;;11.25;7.70;;;;;;;24.36;67.82;98794.39;1754835;80;21007;-64
2021/07/02 06:55:27;;;;;;;9.00;6.28;;;;;;;24.41;67.85;98799.58;1735600;82;20990;-64
2021/07/02 06:57:54;;;;;;;11.20;6.50;;;;;;;24.44;67.53;98799.42;1741519;82;21460;-64
2021/07/02 07:00:21;;;;;;;9.08;6.72;;;;;;;24.43;67.12;98796.42;1711048;82;21351;-64
2021/07/02 07:02:47;;;;;;;12.70;6.72;;;;;;;24.31;67.15;98801.69;1742737;81;21677;-64
2021/07/02 07:05:14;;;;;;;9.48;6.60;;;;;;;24.15;66.95;98808.92;1742128;82;21063;-64
2021/07/02 07:07:42;;;;;;;9.15;6.42;;;;;;;24.05;67.40;98806.02;1739584;81;21018;-64
2021/07/02 07:10:10;;;;;;;12.55;8.30;;;;;;;23.96;67.48;98813.27;1738334;82;21509;-64
2021/07/02 07:12:37;;;;;;;8.55;6.25;;;;;;;23.81;68.02;98812.14;1735443;82;21086;-64
2021/07/02 07:15:05;;;;;;;9.50;6.90;;;;;;;23.74;68.13;98803.11;1732954;82;21044;-65
2021/07/02 07:17:32;;;;;;;12.30;7.12;;;;;;;23.62;68.04;98807.56;1742225;82;21515;-64
2021/07/02 07:19:59;;;;;;;9.33;7.62;;;;;;;23.55;68.57;98811.07;1729953;82;21060;-64
2021/07/02 07:22:25;;;;;;;12.35;7.47;;;;;;;23.58;68.69;98813.09;1719767;82;21120;-63
2021/07/02 07:24:52;;;;;;;18.95;10.05;;;;;;;23.58;68.69;98813.09;1735605;82;21158;-63
2021/07/02 07:27:18;;;;;;;14.33;10.00;;;;;;;23.38;69.22;98798.34;1730579;81;21510;-63
2021/07/02 07:29:45;;;;;;;11.08;7.92;;;;;;;23.38;69.22;98798.34;1725973;81;21407;-64
2021/07/02 07:32:11;;;;;;;91.95;34.63;;;;;;;23.21;69.06;98799.70;1713055;82;21045;-63
2021/07/02 07:37:19;;;;;;;10.10;6.75;;;;;;;23.02;70.47;98792.34;1738725;82;21082;-63
2021/07/02 07:39:47;;;;;;;16.50;9.33;;;;;;;23.00;70.42;98789.13;1730566;82;21023;-62
2021/07/02 07:42:13;;;;;;;7.97;6.28;;;;;;;23.09;70.85;98785.50;1737109;82;21540;-63
2021/07/02 07:44:40;;;;;;;9.58;7.22;;;;;;;23.19;70.55;98800.09;1737051;82;20990;-63
2021/07/02 07:47:06;;;;;;;26.30;13.45;;;;;;;23.26;69.98;98794.63;1733845;82;21055;-64
2021/07/02 07:49:32;;;;;;;9.30;7.17;;;;;;;23.35;69.87;98795.70;1726577;82;20991;-63
2021/07/02 07:52:11;;;;;;;13.28;8.03;;;;;;;23.41;69.23;98795.63;1726258;81;21574;-63
2021/07/02 07:54:27;;;;;;;7.72;6.92;;;;;;;23.46;68.92;98792.50;1728765;82;21028;-64
2021/07/02 07:56:54;;;;;;;10.35;6.90;;;;;;;23.69;68.36;98801.50;1728510;82;21486;-63
2021/07/02 07:59:22;;;;;;;14.15;8.60;;;;;;;23.69;68.36;98801.50;1728864;82;20976;-64
2021/07/02 08:01:49;;;;;;;11.10;7.67;;;;;;;23.70;68.09;98801.69;1729885;81;21023;-64
2021/07/02 08:04:15;;;;;;;15.78;9.60;;;;;;;23.79;67.64;98805.56;1731040;82;21337;-63
2021/07/02 08:06:42;;;;;;;9.65;6.47;;;;;;;23.78;68.30;98812.29;1728357;82;21047;-64
2021/07/02 08:09:10;;;;;;;9.25;7.17;;;;;;;23.59;68.52;98817.47;1734401;82;21008;-63
2021/07/02 08:11:36;;;;;;;9.53;6.90;;;;;;;23.59;68.52;98817.47;1719748;82;21533;-62
2021/07/02 08:14:04;;;;;;;9.80;7.60;;;;;;;23.35;67.58;98814.38;1727723;82;21037;-63
2021/07/02 08:16:30;;;;;;;8.50;7.20;;;;;;;23.12;68.34;98822.80;1733789;81;21468;-61
2021/07/02 08:18:58;;;;;;;7.80;6.60;;;;;;;23.10;68.68;98828.72;1726925;82;21159;-61
2021/07/02 08:21:24;;;;;;;7.90;6.22;;;;;;;23.09;68.61;98831.30;1723934;82;21016;-61
2021/07/02 08:23:51;;;;;;;7.10;6.08;;;;;;;23.05;69.03;98829.06;1725612;82;21061;-61
2021/07/02 08:26:19;;;;;;;9.98;6.50;;;;;;;23.10;68.78;98837.05;1694185;84;21431;-62
2021/07/02 08:31:32;;;;;;;8.40;6.80;;;;;;;23.19;68.39;98841.74;1687436;83;20985;-62
2021/07/02 08:33:59;;;;;;;8.90;6.50;;;;;;;23.24;68.69;98842.78;1691065;84;21013;-62
2021/07/02 08:36:26;;;;;;;7.28;6.00;;;;;;;23.30;68.11;98842.69;1699071;84;21039;-62
2021/07/02 08:38:54;;;;;;;7.62;6.58;;;;;;;23.44;67.99;98837.92;1702256;84;21049;-61
2021/07/02 08:41:20;;;;;;;7.85;6.40;;;;;;;23.51;67.29;98848.31;1707781;84;21072;-62
2021/07/02 08:43:48;;;;;;;6.95;5.78;;;;;;;23.53;66.78;98848.72;1690087;84;21547;-62
2021/07/02 08:46:16;;;;;;;8.30;6.15;;;;;;;23.66;66.71;98848.70;1705312;84;21017;-62
2021/07/02 08:48:47;;;;;;;6.85;6.12;;;;;;;23.93;65.97;98839.05;1689774;84;21032;-62
2021/07/02 08:51:13;;;;;;;7.55;6.03;;;;;;;24.17;65.46;98848.25;1685794;84;21443;-62
2021/07/02 08:53:40;;;;;;;7.72;6.35;;;;;;;24.31;64.71;98833.67;1693283;84;21099;-62
2021/07/02 08:56:07;;;;;;;8.48;6.70;;;;;;;24.31;64.71;98833.67;1684971;84;21003;-63
2021/07/02 08:58:35;;;;;;;7.12;6.40;;;;;;;24.30;64.76;98827.92;1684874;84;21031;-62
2021/07/02 09:01:07;;;;;;;9.65;6.50;;;;;;;24.30;64.76;98827.92;1692461;84;21474;-63
2021/07/02 09:03:39;;;;;;;6.97;5.50;;;;;;;24.54;64.36;98820.95;1686534;84;21077;-61
2021/07/02 09:06:17;;;;;;;10.43;6.83;;;;;;;24.74;64.19;98832.81;1691672;84;21004;-62
2021/07/02 09:09:05;;;;;;;7.65;5.85;;;;;;;24.77;63.50;98819.52;1690621;84;21037;-62
2021/07/02 09:11:32;;;;;;;6.90;5.87;;;;;;;24.81;62.96;98818.73;1689276;84;20958;-62
2021/07/02 09:13:58;;;;;;;9.25;5.70;;;;;;;24.98;63.68;98827.22;1683997;84;21615;-63
2021/07/02 09:16:36;;;;;;;5.80;5.17;;;;;;;25.28;62.29;98829.77;1691045;84;21071;-62
2021/07/02 09:18:58;;;;;;;7.78;5.58;;;;;;;25.50;61.10;98840.41;1692346;82;21056;-62
2021/07/02 09:21:30;;;;;;;11.70;5.55;;;;;;;25.62;60.02;98834.49;1688110;83;21027;-63
2021/07/02 09:23:59;;;;;;;6.25;4.95;;;;;;;25.64;59.73;98839.09;1692058;84;21008;-63
2021/07/02 09:26:43;;;;;;;7.87;4.87;;;;;;;25.60;59.30;98836.89;1724902;82;20995;-62
2021/07/02 09:29:24;;;;;;;9.00;5.28;;;;;;;25.60;60.26;98834.10;1713731;82;21585;-62
2021/07/02 09:31:58;;;;;;;7.72;4.90;;;;;;;25.71;59.53;98830.16;1732479;82;21049;-62
2021/07/02 09:34:49;;;;;;;6.75;5.20;;;;;;;25.74;59.44;98833.55;1734007;82;21057;-63
2021/07/02 09:37:22;;;;;;;7.53;5.65;;;;;;;25.57;59.49;98832.11;1731922;82;21053;-63
2021/07/02 09:39:48;;;;;;;8.70;5.22;;;;;;;25.41;60.40;98829.62;1721037;82;21035;-63
2021/07/02 09:42:27;;;;;;;6.60;5.28;;;;;;;25.62;61.09;98820.56;1714659;82;21036;-63
2021/07/02 09:45:16;;;;;;;8.33;5.47;;;;;;;25.96;60.29;98827.43;1727886;82;21072;-63
2021/07/02 09:47:45;;;;;;;6.95;4.83;;;;;;;26.36;59.35;98824.88;1722857;82;21020;-62
2021/07/02 09:50:26;;;;;;;5.83;4.58;;;;;;;26.60;57.35;98817.13;1736553;82;21508;-62
2021/07/02 09:53:00;;;;;;;5.60;4.60;;;;;;;26.72;56.95;98815.89;1732493;81;21014;-62
2021/07/02 09:55:31;;;;;;;5.50;4.70;;;;;;;26.71;56.66;98818.50;1724804;82;20989;-61
2021/07/02 09:58:16;;;;;;;7.70;5.50;;;;;;;26.59;56.95;98821.70;1732203;82;21523;-60
2021/07/02 10:00:50;;;;;;;7.97;5.10;;;;;;;26.68;58.28;98823.47;1721534;82;21040;-63
2021/07/02 10:03:21;;;;;;;5.92;4.62;;;;;;;26.66;56.27;98817.50;1732167;81;21502;-63
2021/07/02 10:06:02;;;;;;;5.97;4.90;;;;;;;26.70;57.59;98819.69;1735496;82;20998;-63
2021/07/02 10:08:30;;;;;;;5.80;4.45;;;;;;;26.96;56.95;98813.67;1710984;82;21066;-63
2021/07/02 10:10:57;;;;;;;5.22;4.00;;;;;;;27.16;55.94;98808.44;1725090;82;21414;-63
2021/07/02 10:13:29;;;;;;;7.47;4.22;;;;;;;27.33;55.08;98803.97;1726966;82;21031;-63
2021/07/02 10:15:57;;;;;;;8.45;4.50;;;;;;;27.47;54.02;98813.72;1737223;82;21014;-62
2021/07/02 10:18:27;;;;;;;5.10;4.35;;;;;;;27.59;54.01;98812.67;1732703;82;21013;-62
2021/07/02 10:20:55;;;;;;;7.03;4.40;;;;;;;27.74;54.09;98816.16;1735321;82;21657;-63
2021/07/02 10:23:35;;;;;;;6.17;4.08;;;;;;;27.99;53.76;98812.61;1732807;81;21025;-62
2021/07/02 10:26:05;;;;;;;8.35;4.65;;;;;;;28.20;52.95;98807.49;1730803;82;21059;-62
2021/07/02 10:28:31;;;;;;;4.95;4.05;;;;;;;28.28;52.79;98806.84;1741213;82;21013;-62
2021/07/02 10:30:58;;;;;;;6.05;4.58;;;;;;;28.32;52.63;98807.61;1745589;82;21065;-61
2021/07/02 10:33:28;;;;;;;6.62;3.92;;;;;;;28.40;53.06;98802.15;1739640;82;21647;-61
2021/07/02 10:35:58;;;;;;;6.03;4.10;;;;;;;28.54;52.09;98802.02;1739380;82;21022;-61
2021/07/02 10:38:39;;;;;;;6.10;4.75;;;;;;;28.70;50.92;98793.11;1734759;82;21052;-62
2021/07/02 10:41:14;;;;;;;5.58;4.15;;;;;;;28.81;51.04;98799.38;1740992;82;21032;-61
2021/07/02 10:44:07;;;;;;;4.53;3.87;;;;;;;28.76;51.13;98802.05;1739031;82;21621;-62
2021/07/02 10:46:41;;;;;;;5.78;4.17;;;;;;;28.58;50.50;98799.39;1733982;81;21032;-62
2021/07/02 10:49:09;;;;;;;4.90;3.90;;;;;;;28.26;52.11;98801.67;1731578;82;20989;-61
2021/07/02 10:51:52;;;;;;;6.95;4.47;;;;;;;28.25;52.36;98802.87;1740862;82;21555;-62
2021/07/02 10:54:26;;;;;;;7.03;4.35;;;;;;;28.43;51.39;98804.12;1745443;82;21008;-63
2021/07/02 10:57:03;;;;;;;7.20;4.45;;;;;;;28.61;51.75;98798.55;1745233;81;21492;-63
2021/07/02 10:59:41;;;;;;;6.95;4.45;;;;;;;28.70;51.43;98799.48;1739498;82;21008;-63
2021/07/02 11:02:16;;;;;;;5.80;4.22;;;;;;;28.81;51.76;98803.58;1729653;81;21080;-62
2021/07/02 11:04:44;;;;;;;5.30;3.95;;;;;;;28.85;50.00;98794.53;1745968;82;21502;-63
2021/07/02 11:07:25;;;;;;;7.33;4.33;;;;;;;28.91;49.85;98795.69;1739024;82;21034;-63
2021/07/02 11:09:59;;;;;;;5.08;4.12;;;;;;;28.92;50.42;98793.06;1745328;82;20990;-63
2021/07/02 11:12:30;;;;;;;7.00;4.75;;;;;;;28.89;49.78;98791.89;1745374;82;20998;-63
2021/07/02 11:15:08;;;;;;;4.90;4.12;;;;;;;28.81;49.77;98798.77;1746085;82;21041;-63
2021/07/02 11:17:42;;;;;;;6.97;3.92;;;;;;;28.65;50.34;98791.52;1746103;81;21531;-63
2021/07/02 11:20:23;;;;;;;4.35;3.80;;;;;;;28.46;51.63;98797.69;1746091;82;20994;-63
2021/07/02 11:23:03;;;;;;;6.85;4.33;;;;;;;28.58;52.30;98797.19;1746120;81;21045;-63
2021/07/02 11:26:01;;;;;;;5.60;4.20;;;;;;;28.76;51.72;98790.84;1745994;82;21036;-64
2021/07/02 11:28:34;;;;;;;5.87;4.40;;;;;;;28.78;51.18;98784.80;1745226;82;21113;-63
2021/07/02 11:31:04;;;;;;;5.53;4.47;;;;;;;28.84;50.25;98779.73;1745252;82;21661;-63
2021/07/02 11:33:30;;;;;;;5.35;3.83;;;;;;;28.96;51.88;98782.01;1724201;81;21021;-63
2021/07/02 11:36:05;;;;;;;7.15;4.50;;;;;;;29.11;50.64;98782.64;1661848;85;21071;-63
2021/07/02 11:38:31;;;;;;;5.75;4.25;;;;;;;29.09;49.58;98782.25;1663744;85;21099;-62
2021/07/02 11:41:00;;;;;;;7.67;4.35;;;;;;;28.77;49.01;98780.44;1687984;85;21098;-64
2021/07/02 11:43:39;;;;;;;4.67;4.22;;;;;;;28.41;50.98;98779.33;1683008;85;21596;-63
2021/07/02 11:46:13;;;;;;;5.72;4.37;;;;;;;28.14;51.50;98772.17;1688354;85;21059;-63